createdAt,value
2022-12-29T00:00:34.121Z,12.70
2022-12-29T00:03:02.516Z,13.10
2022-12-29T00:05:32.427Z,13.20
2022-12-29T00:08:00.560Z,13.60
2022-12-29T00:10:29.416Z,13.20
2022-12-29T00:13:15.336Z,12.80
2022-12-29T00:15:44.402Z,12.90
2022-12-29T00:18:12.658Z,12.80
2022-12-29T00:20:59.840Z,13.10
2022-12-29T00:23:45.653Z,12.80
2022-12-29T00:26:32.763Z,13.40
2022-12-29T00:29:19.117Z,13.30
2022-12-29T00:32:05.555Z,12.80
2022-12-29T00:34:51.220Z,12.80
2022-12-29T00:37:41.654Z,12.80
2022-12-29T00:40:24.907Z,12.80
2022-12-29T00:43:10.879Z,12.80
2022-12-29T00:45:42.508Z,12.80
2022-12-29T00:48:10.867Z,12.90
2022-12-29T00:50:38.145Z,12.90
2022-12-29T00:53:07.735Z,13.40
2022-12-29T00:55:39.404Z,13.10
2022-12-29T00:58:08.018Z,12.80
2022-12-29T01:00:36.286Z,12.70
2022-12-29T01:03:05.558Z,12.60
2022-12-29T01:05:38.822Z,12.60
2022-12-29T01:08:09.852Z,12.40
2022-12-29T01:10:37.054Z,12.50
2022-12-29T01:13:05.604Z,12.40
2022-12-29T01:15:34.173Z,12.40
2022-12-29T01:18:02.374Z,12.60
2022-12-29T01:20:32.214Z,12.30
2022-12-29T01:23:00.646Z,12.40
2022-12-29T01:25:30.172Z,12.70
2022-12-29T01:27:58.827Z,12.30
2022-12-29T01:30:27.984Z,12.30
2022-12-29T01:32:56.214Z,12.30
2022-12-29T01:35:24.629Z,12.30
2022-12-29T01:37:52.934Z,13.20
2022-12-29T01:40:22.352Z,12.40
2022-12-29T01:42:52.808Z,12.40
2022-12-29T01:45:21.647Z,12.50
2022-12-29T01:47:56.271Z,12.40
2022-12-29T01:50:29.664Z,12.40
2022-12-29T01:53:03.894Z,12.30
2022-12-29T01:55:40.261Z,12.40
2022-12-29T01:58:16.130Z,12.40
2022-12-29T02:00:44.512Z,12.80
2022-12-29T02:03:14.336Z,12.40
2022-12-29T02:05:51.131Z,12.40
2022-12-29T02:08:20.491Z,12.30
2022-12-29T02:10:49.903Z,12.50
2022-12-29T02:13:20.203Z,12.30
2022-12-29T02:16:07.051Z,12.30
2022-12-29T02:18:53.528Z,12.70
2022-12-29T02:22:02.280Z,12.60
2022-12-29T02:25:23.061Z,12.20
2022-12-29T02:28:25.163Z,12.60
2022-12-29T02:31:19.648Z,12.20
2022-12-29T02:34:08.413Z,12.20
2022-12-29T02:36:49.035Z,12.20
2022-12-29T02:39:33.941Z,12.20
2022-12-29T02:42:15.236Z,12.20
2022-12-29T02:44:58.449Z,12.10
2022-12-29T02:47:39.367Z,12.20
2022-12-29T02:50:17.732Z,12.20
2022-12-29T02:52:54.945Z,12.20
2022-12-29T02:55:22.483Z,12.30
2022-12-29T02:58:06.557Z,12.20
2022-12-29T03:00:42.948Z,12.20
2022-12-29T03:03:33.995Z,12.30
2022-12-29T03:06:37.802Z,12.20
2022-12-29T03:09:22.817Z,12.20
2022-12-29T03:12:12.788Z,12.80
2022-12-29T03:15:17.593Z,12.00
2022-12-29T03:17:59.633Z,11.90
2022-12-29T03:20:40.532Z,11.80
2022-12-29T03:23:09.966Z,11.70
2022-12-29T03:25:45.867Z,11.80
2022-12-29T03:28:20.841Z,11.70
2022-12-29T03:30:50.878Z,11.70
2022-12-29T03:33:27.803Z,11.50
2022-12-29T03:36:04.775Z,11.70
2022-12-29T03:38:47.147Z,11.70
2022-12-29T03:41:22.513Z,11.60
2022-12-29T03:43:51.081Z,11.60
2022-12-29T03:46:20.006Z,11.50
2022-12-29T03:48:48.565Z,12.10
2022-12-29T03:51:18.885Z,11.60
2022-12-29T03:53:47.341Z,11.90
2022-12-29T03:56:16.890Z,11.80
2022-12-29T03:58:47.212Z,11.90
2022-12-29T04:01:22.904Z,11.90
2022-12-29T04:03:51.406Z,12.10
2022-12-29T04:06:21.286Z,11.90
2022-12-29T04:08:55.040Z,12.60
2022-12-29T04:11:28.323Z,11.90
2022-12-29T04:14:01.266Z,11.90
2022-12-29T04:16:31.766Z,12.00
2022-12-29T04:19:00.368Z,11.70
2022-12-29T04:21:33.455Z,11.90
2022-12-29T04:24:02.331Z,12.60
2022-12-29T04:26:30.983Z,11.80
2022-12-29T04:29:16.694Z,11.80
2022-12-29T04:32:09.061Z,11.90
2022-12-29T04:34:42.640Z,11.70
2022-12-29T04:37:13.023Z,11.60
2022-12-29T04:39:41.635Z,11.70
2022-12-29T04:42:11.111Z,11.80
2022-12-29T04:44:44.856Z,11.70
2022-12-29T04:47:33.898Z,11.90
2022-12-29T04:50:22.036Z,11.70
2022-12-29T04:53:13.075Z,11.70
2022-12-29T04:55:41.630Z,11.70
2022-12-29T04:58:10.997Z,12.50
2022-12-29T05:00:39.414Z,12.10
2022-12-29T05:03:08.080Z,12.60
2022-12-29T05:05:38.714Z,11.70
2022-12-29T05:08:08.432Z,11.60
2022-12-29T05:10:38.426Z,11.70
2022-12-29T05:13:12.617Z,11.80
2022-12-29T05:15:41.695Z,11.90
2022-12-29T05:18:10.123Z,11.90
2022-12-29T05:20:38.961Z,11.90
2022-12-29T05:23:07.490Z,12.50
2022-12-29T05:25:38.643Z,12.00
2022-12-29T05:28:17.429Z,12.00
2022-12-29T05:31:03.688Z,12.80
2022-12-29T05:33:32.624Z,12.00
2022-12-29T05:36:06.739Z,12.00
2022-12-29T05:38:36.499Z,11.90
2022-12-29T05:41:06.834Z,12.00
2022-12-29T05:43:51.439Z,11.90
2022-12-29T05:46:38.740Z,11.90
2022-12-29T05:49:22.742Z,11.80
2022-12-29T05:52:10.039Z,12.00
2022-12-29T05:54:38.685Z,11.80
2022-12-29T05:57:15.393Z,12.10
2022-12-29T06:00:07.945Z,11.80
2022-12-29T06:02:44.160Z,11.80
2022-12-29T06:05:13.614Z,12.30
2022-12-29T06:07:42.231Z,12.00
2022-12-29T06:10:11.314Z,12.00
2022-12-29T06:12:51.026Z,12.00
2022-12-29T06:15:20.067Z,12.10
2022-12-29T06:17:51.086Z,12.30
2022-12-29T06:20:19.784Z,12.50
2022-12-29T06:22:48.642Z,12.00
2022-12-29T06:25:18.250Z,12.60
2022-12-29T06:27:47.142Z,12.00
2022-12-29T06:30:17.955Z,12.10
2022-12-29T06:32:47.089Z,12.10
2022-12-29T06:35:15.982Z,12.10
2022-12-29T06:37:51.687Z,12.10
2022-12-29T06:40:20.110Z,12.90
2022-12-29T06:43:07.134Z,12.30
2022-12-29T06:45:46.829Z,12.80
2022-12-29T06:48:37.996Z,12.40
2022-12-29T06:51:07.033Z,12.30
2022-12-29T06:53:35.245Z,12.30
2022-12-29T06:56:03.804Z,12.40
2022-12-29T06:58:32.214Z,12.30
2022-12-29T07:01:01.853Z,12.30
2022-12-29T07:03:30.321Z,12.70
2022-12-29T07:05:59.083Z,12.30
2022-12-29T07:08:27.343Z,12.40
2022-12-29T07:10:57.608Z,12.40
2022-12-29T07:13:25.818Z,12.40
2022-12-29T07:15:54.052Z,13.00
2022-12-29T07:18:23.741Z,12.60
2022-12-29T07:20:52.105Z,13.30
2022-12-29T07:23:21.028Z,12.60
2022-12-29T07:25:49.196Z,13.20
2022-12-29T07:28:17.709Z,12.50
2022-12-29T07:30:48.225Z,12.60
2022-12-29T07:33:17.213Z,12.90
2022-12-29T07:35:46.987Z,12.60
2022-12-29T07:38:15.803Z,13.00
2022-12-29T07:40:44.096Z,12.50
2022-12-29T07:43:12.279Z,13.00
2022-12-29T07:45:47.543Z,12.90
2022-12-29T07:48:17.263Z,12.60
2022-12-29T07:50:47.235Z,12.90
2022-12-29T07:53:16.373Z,13.30
2022-12-29T07:55:44.739Z,12.70
2022-12-29T07:58:13.162Z,12.80
2022-12-29T08:00:42.593Z,13.10
2022-12-29T08:03:11.468Z,13.40
2022-12-29T08:05:39.539Z,12.80
2022-12-29T08:08:10.122Z,12.80
2022-12-29T08:10:38.500Z,13.30
2022-12-29T08:13:06.887Z,13.30
2022-12-29T08:35:33.628Z,13.00
2022-12-29T09:48:18.265Z,12.90
2022-12-29T09:50:54.324Z,13.00
2022-12-29T09:53:29.266Z,13.60
2022-12-29T09:56:02.267Z,13.20
2022-12-29T09:58:38.205Z,13.20
2022-12-29T10:01:10.002Z,13.50
2022-12-29T10:03:49.840Z,13.00
2022-12-29T10:06:26.742Z,13.10
2022-12-29T10:09:04.604Z,13.10
2022-12-29T10:12:04.681Z,13.10
2022-12-29T10:14:56.137Z,13.90
2022-12-29T10:17:39.609Z,13.40
2022-12-29T10:20:28.783Z,13.60
2022-12-29T10:23:19.736Z,13.70
2022-12-29T10:25:49.135Z,13.70
2022-12-29T10:28:24.236Z,14.50
2022-12-29T10:30:55.215Z,14.70
2022-12-29T10:33:32.144Z,14.20
2022-12-29T10:36:17.258Z,14.40
2022-12-29T10:39:00.919Z,14.40
2022-12-29T10:41:40.215Z,14.40
2022-12-29T10:44:17.686Z,14.60
2022-12-29T10:46:56.351Z,14.90
2022-12-29T10:49:28.576Z,14.90
2022-12-29T10:52:05.026Z,15.00
2022-12-29T10:54:45.200Z,15.50
2022-12-29T10:57:26.944Z,15.90
2022-12-29T10:59:56.072Z,15.70
2022-12-29T11:03:07.933Z,15.60
2022-12-29T11:05:43.231Z,16.00
2022-12-29T11:08:18.894Z,15.10
2022-12-29T11:10:58.716Z,14.90
2022-12-29T11:13:36.551Z,14.70
2022-12-29T11:16:08.443Z,14.20
2022-12-29T11:18:40.841Z,14.10
2022-12-29T11:21:28.457Z,13.90
2022-12-29T11:24:01.969Z,14.40
2022-12-29T11:26:34.745Z,13.80
2022-12-29T11:29:29.393Z,14.10
2022-12-29T11:32:00.495Z,13.70
2022-12-29T11:34:35.114Z,13.60
2022-12-29T11:37:11.844Z,13.60
2022-12-29T11:39:49.879Z,14.30
2022-12-29T11:42:22.419Z,14.60
2022-12-29T11:44:54.010Z,15.00
2022-12-29T11:47:31.629Z,16.10
2022-12-29T11:50:03.976Z,16.90
2022-12-29T11:52:40.823Z,17.80
2022-12-29T11:55:22.909Z,17.50
2022-12-29T11:57:56.452Z,17.30
2022-12-29T12:00:28.233Z,16.30
2022-12-29T12:03:03.054Z,15.50
2022-12-29T12:05:42.681Z,15.40
2022-12-29T12:08:22.301Z,15.40
2022-12-29T12:11:01.014Z,15.20
2022-12-29T12:13:37.774Z,14.30
2022-12-29T12:16:11.681Z,14.00
2022-12-29T12:18:49.910Z,13.70
2022-12-29T12:21:32.630Z,13.70
2022-12-29T12:24:33.171Z,13.40
2022-12-29T12:27:14.711Z,13.40
2022-12-29T12:29:52.983Z,13.20
2022-12-29T12:32:32.404Z,13.00
2022-12-29T12:35:01.633Z,13.00
2022-12-29T12:38:15.726Z,13.30
2022-12-29T12:41:03.066Z,13.10
2022-12-29T12:43:49.342Z,13.10
2022-12-29T12:47:25.778Z,13.40
2022-12-29T12:50:23.363Z,12.90
2022-12-29T12:53:18.928Z,12.90
2022-12-29T12:56:04.975Z,12.80
2022-12-29T12:58:45.715Z,12.80
2022-12-29T13:01:33.470Z,13.70
2022-12-29T13:04:43.849Z,13.00
2022-12-29T13:07:29.275Z,12.80
2022-12-29T13:10:24.919Z,13.40
2022-12-29T13:13:08.048Z,12.80
2022-12-29T13:15:52.037Z,13.00
2022-12-29T13:18:34.102Z,12.80
2022-12-29T13:21:15.177Z,12.80
2022-12-29T13:23:50.664Z,12.70
2022-12-29T13:26:29.334Z,12.70
2022-12-29T13:29:08.975Z,12.60
2022-12-29T13:31:55.200Z,12.60
2022-12-29T13:34:40.601Z,12.90
2022-12-29T13:37:17.051Z,12.40
2022-12-29T13:39:53.431Z,13.30
2022-12-29T13:42:23.949Z,12.30
2022-12-29T13:44:59.689Z,12.30
2022-12-29T13:47:36.963Z,12.20
2022-12-29T13:50:14.517Z,12.10
2022-12-29T13:52:54.130Z,12.10
2022-12-29T13:55:30.421Z,12.10
2022-12-29T13:58:07.667Z,12.10
2022-12-29T14:00:50.507Z,12.10
2022-12-29T14:03:50.485Z,12.20
2022-12-29T14:06:26.096Z,12.20
2022-12-29T14:08:59.442Z,12.20
2022-12-29T14:11:35.810Z,12.80
2022-12-29T14:14:20.926Z,12.20
2022-12-29T14:16:49.947Z,12.40
2022-12-29T14:19:26.575Z,12.50
2022-12-29T14:21:59.390Z,12.20
2022-12-29T14:24:46.817Z,12.20
2022-12-29T14:27:59.030Z,12.20
2022-12-29T14:31:02.107Z,12.20
2022-12-29T14:33:33.385Z,12.60
2022-12-29T14:36:27.886Z,12.20
2022-12-29T14:38:56.110Z,12.20
2022-12-29T14:41:35.229Z,12.60
2022-12-29T14:44:20.114Z,11.90
2022-12-29T14:47:01.239Z,12.00
2022-12-29T14:49:35.032Z,11.40
2022-12-29T14:52:20.080Z,11.20
2022-12-29T14:54:56.232Z,11.00
2022-12-29T14:57:31.943Z,10.60
2022-12-29T15:00:20.164Z,10.80
2022-12-29T15:02:56.691Z,10.40
2022-12-29T15:05:39.256Z,11.40
2022-12-29T15:08:11.202Z,10.20
2022-12-29T15:10:49.317Z,10.20
2022-12-29T15:13:24.009Z,10.10
2022-12-29T15:15:53.790Z,10.80
2022-12-29T15:18:35.285Z,10.10
2022-12-29T15:21:07.249Z,10.10
2022-12-29T15:23:39.305Z,10.60
2022-12-29T15:26:11.897Z,10.00
2022-12-29T15:28:43.270Z,10.20
2022-12-29T15:31:16.914Z,10.00
2022-12-29T15:33:48.645Z,9.90
2022-12-29T15:36:23.289Z,9.90
2022-12-29T15:38:53.964Z,9.90
2022-12-29T15:41:55.642Z,9.80
2022-12-29T15:44:30.620Z,10.60
2022-12-29T15:46:59.271Z,9.80
2022-12-29T15:49:32.292Z,9.80
2022-12-29T15:52:01.624Z,9.80
2022-12-29T15:54:34.080Z,9.80
2022-12-29T15:57:02.511Z,9.80
2022-12-29T15:59:33.320Z,9.80
2022-12-29T16:02:08.742Z,9.70
2022-12-29T16:05:01.346Z,9.80
2022-12-29T16:07:41.351Z,9.70
2022-12-29T16:10:34.561Z,9.70
2022-12-29T16:13:27.849Z,9.70
2022-12-29T16:16:03.723Z,9.70
2022-12-29T16:18:37.292Z,9.60
2022-12-29T16:21:16.786Z,9.60
2022-12-29T16:23:51.449Z,9.50
2022-12-29T16:26:24.787Z,9.50
2022-12-29T16:29:00.172Z,10.00
2022-12-29T16:31:39.449Z,9.50
2022-12-29T16:34:24.927Z,9.60
2022-12-29T16:37:02.454Z,9.50
2022-12-29T16:39:37.154Z,9.50
2022-12-29T16:42:38.765Z,9.50
2022-12-29T16:46:19.641Z,9.50
2022-12-29T16:48:55.983Z,9.50
2022-12-29T16:51:33.529Z,9.50
2022-12-29T16:54:04.019Z,9.60
2022-12-29T16:56:37.362Z,10.30
2022-12-29T16:59:18.477Z,9.60
2022-12-29T17:01:47.237Z,9.50
2022-12-29T17:04:16.418Z,9.60
2022-12-29T17:06:45.004Z,9.50
2022-12-29T17:09:21.586Z,9.60
2022-12-29T17:12:06.910Z,9.60
2022-12-29T17:14:46.283Z,10.10
2022-12-29T17:17:21.878Z,9.60
2022-12-29T17:19:54.573Z,9.60
2022-12-29T17:22:26.659Z,9.60
2022-12-29T17:24:57.268Z,10.40
2022-12-29T17:27:30.945Z,9.60
2022-12-29T17:30:06.526Z,10.20
2022-12-29T17:32:35.100Z,9.50
2022-12-29T17:35:04.061Z,9.50
2022-12-29T17:37:38.143Z,9.50
2022-12-29T17:40:16.455Z,9.90
2022-12-29T17:42:47.450Z,9.40
2022-12-29T17:45:21.390Z,9.30
2022-12-29T17:47:50.034Z,9.20
2022-12-29T17:50:21.984Z,9.20
2022-12-29T17:53:00.792Z,9.20
2022-12-29T17:55:37.264Z,9.10
2022-12-29T17:58:19.537Z,9.10
2022-12-29T18:00:52.324Z,9.10
2022-12-29T18:03:26.990Z,9.10
2022-12-29T18:05:56.470Z,9.90
2022-12-29T18:08:24.685Z,9.00
2022-12-29T18:10:56.667Z,9.20
2022-12-29T18:13:39.002Z,8.90
2022-12-29T18:16:14.832Z,9.30
2022-12-29T18:18:43.562Z,9.00
2022-12-29T18:21:19.466Z,8.90
2022-12-29T18:23:49.329Z,8.90
2022-12-29T18:26:27.305Z,8.90
2022-12-29T18:28:55.960Z,8.90
2022-12-29T18:31:29.010Z,8.80
2022-12-29T18:34:00.531Z,8.80
2022-12-29T18:36:30.002Z,8.80
2022-12-29T18:38:59.031Z,8.80
2022-12-29T18:41:30.368Z,8.80
2022-12-29T18:43:59.243Z,8.90
2022-12-29T18:46:30.065Z,8.90
2022-12-29T18:48:58.983Z,8.80
2022-12-29T18:51:27.576Z,8.80
2022-12-29T18:53:55.783Z,8.70
2022-12-29T18:56:25.399Z,8.70
2022-12-29T18:58:55.528Z,8.60
2022-12-29T19:01:28.842Z,8.70
2022-12-29T19:03:58.564Z,8.70
2022-12-29T19:06:26.867Z,8.70
2022-12-29T19:08:55.083Z,8.60
2022-12-29T19:11:24.235Z,8.80
2022-12-29T19:13:53.302Z,8.70
2022-12-29T19:16:25.182Z,8.80
2022-12-29T19:19:08.268Z,8.70
2022-12-29T19:21:39.397Z,8.70
2022-12-29T19:24:08.527Z,8.70
2022-12-29T19:26:40.240Z,8.70
2022-12-29T19:29:14.539Z,8.70
2022-12-29T19:31:43.418Z,8.70
2022-12-29T19:34:15.058Z,8.60
2022-12-29T19:36:46.204Z,8.60
2022-12-29T19:39:15.163Z,8.90
2022-12-29T19:41:43.562Z,8.80
2022-12-29T19:44:12.440Z,8.60
2022-12-29T19:46:40.716Z,8.60
2022-12-29T19:49:09.798Z,8.60
2022-12-29T19:51:38.433Z,8.60
2022-12-29T19:54:07.999Z,8.60
2022-12-29T19:56:36.268Z,8.60
2022-12-29T19:59:04.478Z,8.60
2022-12-29T20:01:32.886Z,8.60
2022-12-29T20:04:02.916Z,8.60
2022-12-29T20:06:31.855Z,8.60
2022-12-29T20:09:03.002Z,8.60
2022-12-29T20:11:33.069Z,8.50
2022-12-29T20:14:01.361Z,8.50
2022-12-29T20:16:30.284Z,8.50
2022-12-29T20:18:59.523Z,8.50
2022-12-29T20:21:29.475Z,9.10
2022-12-29T20:23:57.715Z,8.50
2022-12-29T20:26:29.406Z,8.50
2022-12-29T20:29:00.178Z,8.70
2022-12-29T20:31:32.369Z,8.50
2022-12-29T20:34:01.728Z,8.50
2022-12-29T20:36:33.039Z,8.50
2022-12-29T20:39:05.104Z,8.40
2022-12-29T20:41:33.486Z,8.60
2022-12-29T20:44:05.676Z,8.40
2022-12-29T20:46:41.229Z,8.40
2022-12-29T20:49:13.468Z,8.40
2022-12-29T20:54:38.485Z,8.30
2022-12-29T20:57:07.976Z,8.30
2022-12-29T20:59:40.253Z,8.30
2022-12-29T21:02:08.628Z,8.20
2022-12-29T21:05:05.582Z,8.20
2022-12-29T21:07:26.244Z,8.20
2022-12-29T21:09:54.450Z,8.20
2022-12-29T21:12:22.982Z,8.20
2022-12-29T21:14:52.958Z,8.20
2022-12-29T21:17:21.173Z,8.70
2022-12-29T21:19:49.343Z,8.20
2022-12-29T21:22:17.744Z,8.20
2022-12-29T21:24:46.016Z,8.20
2022-12-29T21:27:14.587Z,8.20
2022-12-29T21:29:42.895Z,8.20
2022-12-29T21:32:12.689Z,8.20
2022-12-29T21:34:40.961Z,8.20
2022-12-29T21:37:09.512Z,8.30
2022-12-29T21:39:37.630Z,8.30
2022-12-29T21:42:06.809Z,8.20
2022-12-29T21:44:52.352Z,8.30
2022-12-29T21:47:22.098Z,8.20
2022-12-29T21:49:50.226Z,8.30
2022-12-29T21:52:18.616Z,8.90
2022-12-29T21:55:00.711Z,8.30
2022-12-29T21:57:46.705Z,8.40
2022-12-29T22:00:34.297Z,8.40
2022-12-29T22:03:25.077Z,8.40
2022-12-29T22:06:11.629Z,8.40
2022-12-29T22:08:57.961Z,8.40
2022-12-29T22:11:43.605Z,8.40
2022-12-29T22:14:12.039Z,8.40
2022-12-29T22:16:40.553Z,8.40
2022-12-29T22:19:11.446Z,8.40
2022-12-29T22:21:39.968Z,8.60
2022-12-29T22:24:10.277Z,8.70
2022-12-29T22:26:38.475Z,8.50
2022-12-29T22:29:06.640Z,8.50
2022-12-29T22:31:34.986Z,8.50
2022-12-29T22:34:06.470Z,8.50
2022-12-29T22:36:36.533Z,8.50
2022-12-29T22:39:05.077Z,8.50
2022-12-29T22:41:33.740Z,8.50
2022-12-29T22:44:02.074Z,8.50
2022-12-29T22:46:30.289Z,8.50
2022-12-29T22:48:59.161Z,8.50
2022-12-29T22:51:27.394Z,8.40
2022-12-29T22:53:58.441Z,8.40
2022-12-29T22:56:26.812Z,8.50
2022-12-29T22:58:55.036Z,8.40
2022-12-29T23:01:23.546Z,8.50
2022-12-29T23:03:52.006Z,8.50
2022-12-29T23:06:20.992Z,8.50
2022-12-29T23:08:49.196Z,8.60
2022-12-29T23:11:19.220Z,8.40
2022-12-29T23:13:47.435Z,8.90
2022-12-29T23:16:17.692Z,8.40
2022-12-29T23:18:48.275Z,8.40
2022-12-29T23:21:18.040Z,8.40
2022-12-29T23:23:56.183Z,8.40
2022-12-29T23:26:28.503Z,8.40
2022-12-29T23:29:00.323Z,8.40
2022-12-29T23:31:30.867Z,8.40
2022-12-29T23:33:59.087Z,8.40
2022-12-29T23:36:27.824Z,8.40
2022-12-29T23:38:56.290Z,8.30
2022-12-29T23:41:27.125Z,8.30
2022-12-29T23:43:55.299Z,8.30
2022-12-29T23:46:26.039Z,8.40
2022-12-29T23:48:54.715Z,8.40
2022-12-29T23:51:23.315Z,8.30
2022-12-29T23:53:51.491Z,8.30
2022-12-29T23:56:22.469Z,8.30
2022-12-29T23:58:53.082Z,8.30
